createdAt,value
2018-04-25T00:00:10.292Z,72.50
2018-04-25T00:01:10.325Z,72.50
2018-04-25T00:02:10.277Z,72.50
2018-04-25T00:03:10.272Z,71.83
2018-04-25T00:04:10.264Z,71.83
2018-04-25T00:05:10.258Z,71.83
2018-04-25T00:06:10.251Z,72.31
2018-04-25T00:07:10.244Z,71.93
2018-04-25T00:08:11.889Z,72.31
2018-04-25T00:09:10.229Z,72.02
2018-04-25T00:10:10.223Z,71.93
2018-04-25T00:11:10.216Z,72.41
2018-04-25T00:12:10.209Z,72.12
2018-04-25T00:13:10.201Z,72.31
2018-04-25T00:14:10.194Z,71.93
2018-04-25T00:15:10.187Z,72.22
2018-04-25T00:16:10.186Z,71.93
2018-04-25T00:17:10.174Z,72.31
2018-04-25T00:18:10.169Z,72.22
2018-04-25T00:19:10.161Z,72.12
2018-04-25T00:20:10.154Z,71.93
2018-04-25T00:21:10.145Z,72.12
2018-04-25T00:22:10.139Z,72.41
2018-04-25T00:23:10.132Z,72.50
2018-04-25T00:24:10.126Z,71.83
2018-04-25T00:25:10.118Z,71.93
2018-04-25T00:26:11.663Z,72.02
2018-04-25T00:27:10.105Z,71.93
2018-04-25T00:28:10.097Z,72.22
2018-04-25T00:29:10.090Z,72.31
2018-04-25T00:30:10.083Z,72.02
2018-04-25T00:31:10.076Z,72.02
2018-04-25T00:32:13.974Z,71.64
2018-04-25T00:33:10.063Z,71.55
2018-04-25T00:34:10.055Z,71.64
2018-04-25T00:35:10.050Z,72.02
2018-04-25T00:36:10.041Z,71.83
2018-04-25T00:37:10.034Z,71.64
2018-04-25T00:38:10.027Z,71.64
2018-04-25T00:39:10.023Z,72.02
2018-04-25T00:40:10.014Z,71.55
2018-04-25T00:41:10.006Z,72.02
2018-04-25T00:42:09.999Z,72.02
2018-04-25T00:43:09.992Z,72.22
2018-04-25T00:44:12.288Z,71.83
2018-04-25T00:45:09.979Z,72.12
2018-04-25T00:46:09.971Z,72.31
2018-04-25T00:47:09.965Z,71.83
2018-04-25T00:48:09.958Z,72.02
2018-04-25T00:49:09.950Z,72.22
2018-04-25T00:50:10.699Z,72.22
2018-04-25T00:51:09.938Z,72.31
2018-04-25T00:52:09.931Z,72.12
2018-04-25T00:53:09.922Z,72.12
2018-04-25T00:54:09.915Z,72.31
2018-04-25T00:55:09.910Z,71.93
2018-04-25T00:56:09.903Z,72.22
2018-04-25T00:57:09.896Z,72.41
2018-04-25T00:58:09.888Z,72.02
2018-04-25T00:59:09.881Z,72.02
2018-04-25T01:00:09.875Z,72.60
2018-04-25T01:01:09.870Z,72.69
2018-04-25T01:02:12.163Z,72.79
2018-04-25T01:03:09.853Z,72.79
2018-04-25T01:04:09.848Z,72.60
2018-04-25T01:05:09.839Z,72.60
2018-04-25T01:06:09.832Z,72.41
2018-04-25T01:07:09.826Z,72.79
2018-04-25T01:08:09.820Z,73.08
2018-04-25T01:09:09.812Z,72.60
2018-04-25T01:10:09.805Z,73.17
2018-04-25T01:11:09.798Z,73.08
2018-04-25T01:12:09.792Z,72.98
2018-04-25T01:13:09.784Z,72.69
2018-04-25T01:14:12.136Z,72.69
2018-04-25T01:15:09.770Z,73.08
2018-04-25T01:16:09.764Z,73.08
2018-04-25T01:17:09.758Z,72.98
2018-04-25T01:18:09.750Z,73.36
2018-04-25T01:19:09.745Z,73.46
2018-04-25T01:20:10.538Z,73.36
2018-04-25T01:21:09.729Z,72.98
2018-04-25T01:22:09.722Z,73.27
2018-04-25T01:23:09.718Z,73.36
2018-04-25T01:24:09.711Z,73.27
2018-04-25T01:25:09.703Z,73.36
2018-04-25T01:26:09.695Z,73.17
2018-04-25T01:27:09.689Z,73.08
2018-04-25T01:28:09.686Z,73.08
2018-04-25T01:29:09.674Z,73.46
2018-04-25T01:30:09.668Z,73.84
2018-04-25T01:31:09.661Z,73.55
2018-04-25T01:32:11.206Z,73.94
2018-04-25T01:33:09.648Z,74.04
2018-04-25T01:34:09.640Z,73.75
2018-04-25T01:35:09.634Z,73.75
2018-04-25T01:36:09.627Z,73.75
2018-04-25T01:37:09.620Z,73.84
2018-04-25T01:38:09.613Z,74.13
2018-04-25T01:39:09.608Z,74.61
2018-04-25T01:40:09.603Z,74.13
2018-04-25T01:41:09.593Z,74.22
2018-04-25T01:42:09.590Z,74.13
2018-04-25T01:43:09.580Z,74.61
2018-04-25T01:44:09.573Z,75.09
2018-04-25T01:45:09.566Z,74.41
2018-04-25T01:46:09.563Z,74.61
2018-04-25T01:47:09.553Z,74.51
2018-04-25T01:48:09.547Z,74.61
2018-04-25T01:49:09.539Z,74.61
2018-04-25T01:50:10.283Z,75.27
2018-04-25T01:51:09.526Z,74.99
2018-04-25T01:52:09.523Z,75.37
2018-04-25T01:53:09.511Z,75.24
2018-04-25T01:54:09.506Z,75.43
2018-04-25T01:55:09.499Z,75.91
2018-04-25T01:56:10.245Z,76.20
2018-04-25T01:57:09.484Z,75.81
2018-04-25T01:58:09.478Z,75.62
2018-04-25T01:59:09.472Z,76.29
2018-04-25T02:00:09.464Z,75.91
2018-04-25T02:01:09.456Z,76.10
2018-04-25T02:02:09.450Z,76.67
2018-04-25T02:03:09.444Z,76.57
2018-04-25T02:04:09.437Z,76.77
2018-04-25T02:05:09.429Z,76.77
2018-04-25T02:06:09.423Z,76.57
2018-04-25T02:07:09.417Z,76.67
2018-04-25T02:08:10.160Z,77.06
2018-04-25T02:09:09.402Z,76.67
2018-04-25T02:10:09.394Z,76.67
2018-04-25T02:11:09.388Z,77.06
2018-04-25T02:12:09.381Z,77.06
2018-04-25T02:13:09.374Z,77.06
2018-04-25T02:14:09.367Z,77.34
2018-04-25T02:15:09.361Z,77.06
2018-04-25T02:16:09.359Z,78.01
2018-04-25T02:17:09.348Z,77.72
2018-04-25T02:18:09.340Z,77.53
2018-04-25T02:19:09.334Z,77.44
2018-04-25T02:20:09.325Z,77.92
2018-04-25T02:21:09.318Z,77.82
2018-04-25T02:22:09.312Z,78.30
2018-04-25T02:23:09.304Z,78.20
2018-04-25T02:24:09.297Z,78.11
2018-04-25T02:25:09.291Z,78.30
2018-04-25T02:26:10.034Z,78.30
2018-04-25T02:27:09.276Z,78.39
2018-04-25T02:28:09.270Z,77.92
2018-04-25T02:29:09.261Z,78.20
2018-04-25T02:30:09.255Z,78.20
2018-04-25T02:31:09.247Z,78.68
2018-04-25T02:32:10.798Z,79.25
2018-04-25T02:33:09.234Z,79.16
2018-04-25T02:34:09.227Z,79.02
2018-04-25T02:35:09.219Z,79.41
2018-04-25T02:36:09.216Z,80.21
2018-04-25T02:37:09.209Z,79.79
2018-04-25T02:38:09.200Z,79.60
2018-04-25T02:39:09.195Z,79.88
2018-04-25T02:40:09.183Z,79.79
2018-04-25T02:41:09.175Z,79.79
2018-04-25T02:42:09.168Z,79.83
2018-04-25T02:43:09.162Z,80.36
2018-04-25T02:44:09.156Z,80.27
2018-04-25T02:45:09.146Z,80.69
2018-04-25T02:46:09.140Z,80.74
2018-04-25T02:47:09.133Z,80.36
2018-04-25T02:48:09.127Z,80.27
2018-04-25T02:49:09.118Z,80.36
2018-04-25T02:50:09.111Z,80.27
2018-04-25T02:51:09.105Z,80.55
2018-04-25T02:52:09.097Z,80.65
2018-04-25T02:53:09.089Z,80.74
2018-04-25T02:54:09.083Z,80.65
2018-04-25T02:55:09.076Z,80.46
2018-04-25T02:56:09.823Z,80.84
2018-04-25T02:57:09.059Z,80.84
2018-04-25T02:58:09.053Z,80.74
2018-04-25T02:59:09.045Z,80.74
2018-04-25T03:00:09.042Z,80.74
2018-04-25T03:01:09.031Z,81.22
2018-04-25T03:02:09.025Z,81.03
2018-04-25T03:03:09.018Z,80.84
2018-04-25T03:04:09.010Z,81.32
2018-04-25T03:05:09.002Z,81.70
2018-04-25T03:06:08.995Z,81.32
2018-04-25T03:07:08.991Z,81.51
2018-04-25T03:08:12.134Z,81.70
2018-04-25T03:09:08.973Z,81.32
2018-04-25T03:10:08.965Z,81.60
2018-04-25T03:11:08.959Z,81.51
2018-04-25T03:12:08.952Z,81.51
2018-04-25T03:13:08.945Z,81.99
2018-04-25T03:14:10.488Z,81.79
2018-04-25T03:15:08.929Z,81.89
2018-04-25T03:16:08.922Z,81.60
2018-04-25T03:17:08.914Z,81.79
2018-04-25T03:18:08.907Z,82.37
2018-04-25T03:19:08.900Z,82.28
2018-04-25T03:20:09.694Z,82.08
2018-04-25T03:21:08.885Z,82.46
2018-04-25T03:22:08.878Z,82.65
2018-04-25T03:23:08.871Z,82.37
2018-04-25T03:24:08.865Z,82.65
2018-04-25T03:25:08.856Z,82.37
2018-04-25T03:26:09.649Z,82.94
2018-04-25T03:27:08.841Z,82.65
2018-04-25T03:28:08.834Z,82.84
2018-04-25T03:29:08.827Z,82.75
2018-04-25T03:30:08.819Z,82.46
2018-04-25T03:31:08.812Z,83.04
2018-04-25T03:32:08.805Z,83.51
2018-04-25T03:33:08.797Z,83.61
2018-04-25T03:34:08.790Z,83.51
2018-04-25T03:35:08.782Z,83.51
2018-04-25T03:36:08.775Z,83.80
2018-04-25T03:37:08.767Z,83.90
2018-04-25T03:38:10.313Z,84.28
2018-04-25T03:39:08.753Z,84.19
2018-04-25T03:40:08.750Z,84.47
2018-04-25T03:41:08.827Z,84.56
2018-04-25T03:42:08.730Z,84.76
2018-04-25T03:43:08.724Z,84.66
2018-04-25T03:44:11.774Z,84.66
2018-04-25T03:45:08.709Z,84.56
2018-04-25T03:46:08.702Z,84.66
2018-04-25T03:47:08.696Z,84.85
2018-04-25T03:48:08.688Z,84.95
2018-04-25T03:49:08.680Z,85.05
2018-04-25T03:50:08.673Z,85.24
2018-04-25T03:51:08.667Z,85.33
2018-04-25T03:52:08.660Z,85.24
2018-04-25T03:53:08.651Z,85.24
2018-04-25T03:54:08.645Z,84.95
2018-04-25T03:55:08.636Z,84.76
2018-04-25T03:56:08.630Z,85.42
2018-04-25T03:57:08.621Z,85.52
2018-04-25T03:58:08.614Z,85.14
2018-04-25T03:59:08.646Z,85.52
2018-04-25T04:00:08.600Z,85.52
2018-04-25T04:01:08.591Z,85.42
2018-04-25T04:02:10.941Z,85.42
2018-04-25T04:03:08.578Z,85.90
2018-04-25T04:04:08.571Z,85.71
2018-04-25T04:05:08.563Z,85.81
2018-04-25T04:06:08.555Z,86.00
2018-04-25T04:07:08.548Z,86.00
2018-04-25T04:08:09.342Z,85.81
2018-04-25T04:09:08.533Z,86.29
2018-04-25T04:10:08.526Z,85.71
2018-04-25T04:11:08.520Z,86.29
2018-04-25T04:12:08.512Z,86.19
2018-04-25T04:13:08.504Z,86.29
2018-04-25T04:14:08.497Z,86.29
2018-04-25T04:15:08.489Z,86.19
2018-04-25T04:16:08.483Z,86.38
2018-04-25T04:17:08.474Z,86.10
2018-04-25T04:18:08.468Z,86.47
2018-04-25T04:19:08.461Z,87.15
2018-04-25T04:20:10.806Z,86.76
2018-04-25T04:21:08.445Z,86.67
2018-04-25T04:22:08.437Z,86.86
2018-04-25T04:23:08.431Z,87.15
2018-04-25T04:24:08.423Z,86.67
2018-04-25T04:25:08.421Z,86.96
2018-04-25T04:26:08.407Z,87.05
2018-04-25T04:27:08.400Z,87.05
2018-04-25T04:28:08.394Z,87.24
2018-04-25T04:29:08.384Z,87.72
2018-04-25T04:30:08.378Z,87.43
2018-04-25T04:31:08.371Z,87.05
2018-04-25T04:32:08.364Z,87.24
2018-04-25T04:33:08.356Z,87.24
2018-04-25T04:34:08.354Z,87.82
2018-04-25T04:35:08.341Z,87.91
2018-04-25T04:36:08.334Z,87.43
2018-04-25T04:37:08.331Z,87.43
2018-04-25T04:38:09.925Z,87.82
2018-04-25T04:39:08.312Z,87.62
2018-04-25T04:40:08.304Z,87.91
2018-04-25T04:41:08.297Z,88.01
2018-04-25T04:42:08.289Z,87.24
2018-04-25T04:43:08.335Z,87.62
2018-04-25T04:44:08.274Z,87.82
2018-04-25T04:45:08.267Z,87.05
2018-04-25T04:46:08.259Z,87.34
2018-04-25T04:47:08.254Z,87.43
2018-04-25T04:48:08.247Z,87.62
2018-04-25T04:49:08.237Z,87.62
2018-04-25T04:50:08.981Z,87.62
2018-04-25T04:51:08.225Z,87.43
2018-04-25T04:52:08.215Z,87.72
2018-04-25T04:53:08.207Z,88.01
2018-04-25T04:54:08.200Z,87.82
2018-04-25T04:55:08.193Z,87.82
2018-04-25T04:56:09.037Z,87.82
2018-04-25T04:57:08.179Z,87.91
2018-04-25T04:58:08.171Z,87.43
2018-04-25T04:59:08.164Z,87.62
2018-04-25T05:00:08.158Z,87.62
2018-04-25T05:01:08.148Z,87.34
2018-04-25T05:02:08.140Z,87.43
2018-04-25T05:03:08.134Z,87.05
2018-04-25T05:04:08.132Z,87.62
2018-04-25T05:05:08.123Z,87.48
2018-04-25T05:06:08.113Z,87.29
2018-04-25T05:07:08.103Z,87.05
2018-04-25T05:08:08.848Z,86.47
2018-04-25T05:09:08.090Z,86.19
2018-04-25T05:10:08.081Z,86.00
2018-04-25T05:11:08.075Z,85.33
2018-04-25T05:12:08.068Z,84.76
2018-04-25T05:13:08.091Z,85.14
2018-04-25T05:14:10.404Z,84.95
2018-04-25T05:15:08.045Z,85.24
2018-04-25T05:16:08.038Z,84.76
2018-04-25T05:17:08.029Z,85.42
2018-04-25T05:18:08.023Z,85.24
2018-04-25T05:19:08.015Z,85.14
2018-04-25T05:20:09.560Z,84.91
2018-04-25T05:21:07.999Z,84.85
2018-04-25T05:22:07.991Z,86.00
2018-04-25T05:23:07.985Z,85.38
2018-04-25T05:24:07.977Z,85.77
2018-04-25T05:25:07.969Z,86.24
2018-04-25T05:26:08.763Z,86.72
2018-04-25T05:27:07.955Z,88.63
2018-04-25T05:28:07.948Z,90.78
2018-04-25T05:29:07.940Z,92.88
2018-04-25T05:30:07.930Z,95.84
2018-04-25T05:31:07.932Z,96.89
2018-04-25T05:32:08.735Z,97.03
2018-04-25T05:33:07.907Z,98.47
2018-04-25T05:34:07.899Z,99.13
2018-04-25T05:35:07.891Z,99.99
2018-04-25T05:36:07.884Z,99.99
2018-04-25T05:37:07.874Z,99.99
2018-04-25T05:38:07.873Z,99.99
2018-04-25T05:39:07.857Z,99.99
2018-04-25T05:40:07.849Z,99.99
2018-04-25T05:41:07.840Z,99.99
2018-04-25T05:42:07.833Z,99.99
2018-04-25T05:43:07.823Z,99.99
2018-04-25T05:44:07.816Z,99.99
2018-04-25T05:45:07.806Z,99.99
2018-04-25T05:46:07.798Z,99.99
2018-04-25T05:47:07.790Z,99.99
2018-04-25T05:48:07.780Z,99.99
2018-04-25T05:49:07.772Z,99.99
2018-04-25T05:50:11.718Z,99.99
2018-04-25T05:51:07.754Z,99.99
2018-04-25T05:52:07.746Z,99.99
2018-04-25T05:53:07.736Z,99.99
2018-04-25T05:54:07.728Z,99.99
2018-04-25T05:55:07.719Z,99.99
2018-04-25T05:56:08.460Z,99.99
2018-04-25T05:57:07.701Z,99.99
2018-04-25T05:58:07.692Z,99.99
2018-04-25T05:59:07.685Z,99.99
2018-04-25T06:00:07.676Z,99.99
2018-04-25T06:01:07.666Z,99.99
2018-04-25T06:02:07.658Z,99.99
2018-04-25T06:03:07.649Z,99.99
2018-04-25T06:04:07.641Z,99.99
2018-04-25T06:05:07.630Z,99.99
2018-04-25T06:06:07.622Z,99.99
2018-04-25T06:07:07.621Z,99.99
2018-04-25T06:08:08.356Z,99.99
2018-04-25T06:09:07.596Z,99.99
2018-04-25T06:10:07.588Z,99.99
2018-04-25T06:11:07.581Z,99.99
2018-04-25T06:12:07.582Z,99.99
2018-04-25T06:13:07.563Z,99.99
2018-04-25T06:14:09.906Z,99.99
2018-04-25T06:15:07.545Z,99.99
2018-04-25T06:16:07.540Z,99.99
2018-04-25T06:17:07.531Z,99.99
2018-04-25T06:18:07.521Z,99.99
2018-04-25T06:19:07.513Z,99.99
2018-04-25T06:20:08.377Z,99.99
2018-04-25T06:21:07.495Z,99.99
2018-04-25T06:22:07.487Z,99.99
2018-04-25T06:23:07.478Z,99.99
2018-04-25T06:24:07.469Z,99.99
2018-04-25T06:25:07.463Z,99.99
2018-04-25T06:26:08.955Z,99.99
2018-04-25T06:27:07.448Z,99.99
2018-04-25T06:28:07.515Z,99.99
2018-04-25T06:29:07.427Z,99.99
2018-04-25T06:30:07.420Z,99.99
2018-04-25T06:31:07.410Z,99.99
2018-04-25T06:32:07.402Z,99.99
2018-04-25T06:33:07.393Z,99.99
2018-04-25T06:34:07.387Z,99.99
2018-04-25T06:35:07.379Z,99.99
2018-04-25T06:36:07.370Z,99.99
2018-04-25T06:37:07.361Z,99.99
2018-04-25T06:38:08.105Z,99.99
2018-04-25T06:39:07.344Z,99.99
2018-04-25T06:40:07.337Z,99.99
2018-04-25T06:41:07.328Z,99.99
2018-04-25T06:42:07.320Z,99.99
2018-04-25T06:43:07.311Z,99.99
2018-04-25T06:44:07.303Z,99.99
2018-04-25T06:45:07.431Z,99.99
2018-04-25T06:46:07.290Z,99.99
2018-04-25T06:47:07.277Z,99.99
2018-04-25T06:48:07.268Z,99.99
2018-04-25T06:49:07.263Z,99.99
2018-04-25T06:50:08.002Z,99.99
2018-04-25T06:51:07.244Z,99.99
2018-04-25T06:52:07.235Z,99.99
2018-04-25T06:53:07.230Z,99.99
2018-04-25T06:54:07.218Z,99.99
2018-04-25T06:55:07.209Z,99.99
2018-04-25T06:56:08.803Z,99.99
2018-04-25T06:57:07.192Z,99.99
2018-04-25T06:58:07.184Z,99.99
2018-04-25T06:59:07.177Z,99.99
2018-04-25T07:00:07.168Z,99.99
2018-04-25T07:01:07.164Z,99.99
2018-04-25T07:02:07.157Z,99.99
2018-04-25T07:03:07.144Z,99.99
2018-04-25T07:04:07.142Z,99.99
2018-04-25T07:05:07.132Z,99.99
2018-04-25T07:06:07.122Z,99.99
2018-04-25T07:07:07.113Z,99.99
2018-04-25T07:08:08.704Z,99.99
2018-04-25T07:09:07.098Z,99.99
2018-04-25T07:10:07.089Z,99.99
2018-04-25T07:11:07.081Z,99.99
2018-04-25T07:12:07.075Z,99.99
2018-04-25T07:13:07.065Z,99.99
2018-04-25T07:14:07.075Z,99.99
2018-04-25T07:15:07.054Z,99.99
2018-04-25T07:16:07.044Z,99.99
2018-04-25T07:17:07.035Z,99.99
2018-04-25T07:18:07.029Z,99.99
2018-04-25T07:19:07.023Z,99.99
2018-04-25T07:20:07.115Z,99.99
2018-04-25T07:21:07.008Z,99.99
2018-04-25T07:22:07.004Z,99.99
2018-04-25T07:23:06.996Z,99.99
2018-04-25T07:24:06.988Z,99.99
2018-04-25T07:25:06.981Z,99.99
2018-04-25T07:26:07.724Z,99.99
2018-04-25T07:27:06.967Z,99.99
2018-04-25T07:28:06.961Z,99.99
2018-04-25T07:29:06.955Z,99.99
2018-04-25T07:30:06.949Z,99.99
2018-04-25T07:31:06.944Z,99.99
2018-04-25T07:32:06.938Z,99.99
2018-04-25T07:33:06.931Z,99.99
2018-04-25T07:34:06.928Z,99.99
2018-04-25T07:35:06.920Z,99.99
2018-04-25T07:36:06.914Z,99.99
2018-04-25T07:37:06.908Z,99.76
2018-04-25T07:38:07.703Z,98.71
2018-04-25T07:39:06.898Z,97.75
2018-04-25T07:40:06.971Z,97.94
2018-04-25T07:41:06.887Z,96.42
2018-04-25T07:42:06.882Z,97.27
2018-04-25T07:43:06.878Z,97.80
2018-04-25T07:44:06.874Z,96.27
2018-04-25T07:45:06.870Z,93.88
2018-04-25T07:46:06.866Z,93.88
2018-04-25T07:47:06.864Z,92.74
2018-04-25T07:48:06.862Z,92.83
2018-04-25T07:49:06.857Z,91.88
2018-04-25T07:50:08.407Z,91.59
2018-04-25T07:51:06.858Z,92.55
2018-04-25T07:52:06.902Z,90.35
2018-04-25T07:53:06.849Z,89.87
2018-04-25T07:54:06.844Z,93.02
2018-04-25T07:55:06.840Z,91.40
2018-04-25T07:56:09.194Z,91.50
2018-04-25T07:57:06.835Z,91.59
2018-04-25T07:58:06.830Z,91.45
2018-04-25T07:59:06.827Z,90.20
2018-04-25T08:00:06.826Z,90.30
2018-04-25T08:01:06.823Z,91.16
2018-04-25T08:02:06.820Z,91.16
2018-04-25T08:03:06.818Z,90.01
2018-04-25T08:04:06.817Z,90.01
2018-04-25T08:05:06.813Z,89.63
2018-04-25T08:06:06.811Z,89.44
2018-04-25T08:07:06.811Z,88.43
2018-04-25T08:08:06.809Z,87.95
2018-04-25T08:09:06.807Z,87.57
2018-04-25T08:10:06.809Z,87.33
2018-04-25T08:11:06.807Z,85.85
2018-04-25T08:12:06.807Z,85.38
2018-04-25T08:13:06.805Z,86.04
2018-04-25T08:14:06.806Z,84.99
2018-04-25T08:15:06.806Z,85.51
2018-04-25T08:16:06.806Z,84.17
2018-04-25T08:17:06.807Z,83.40
2018-04-25T08:18:06.808Z,82.83
2018-04-25T08:19:06.808Z,81.78
2018-04-25T08:20:06.810Z,82.70
2018-04-25T08:21:06.810Z,84.61
2018-04-25T08:22:06.809Z,83.65
2018-04-25T08:23:06.809Z,82.35
2018-04-25T08:24:06.815Z,82.54
2018-04-25T08:25:06.811Z,80.35
2018-04-25T08:26:07.563Z,80.38
2018-04-25T08:27:06.814Z,80.00
2018-04-25T08:28:06.816Z,78.66
2018-04-25T08:29:06.818Z,77.70
2018-04-25T08:30:06.819Z,77.26
2018-04-25T08:31:06.822Z,77.94
2018-04-25T08:32:07.733Z,76.60
2018-04-25T08:33:06.828Z,75.48
2018-04-25T08:34:06.834Z,75.48
2018-04-25T08:35:06.838Z,73.76
2018-04-25T08:36:06.840Z,72.23
2018-04-25T08:37:06.844Z,72.19
2018-04-25T08:38:06.848Z,73.38
2018-04-25T08:39:06.853Z,72.99
2018-04-25T08:40:06.858Z,72.71
2018-04-25T08:41:06.862Z,71.37
2018-04-25T08:42:06.867Z,70.89
2018-04-25T08:43:06.872Z,71.56
2018-04-25T08:44:06.879Z,72.07
2018-04-25T08:45:06.935Z,69.39
2018-04-25T08:46:06.891Z,70.06
2018-04-25T08:47:06.895Z,69.20
2018-04-25T08:48:06.899Z,69.01
2018-04-25T08:49:06.903Z,70.25
2018-04-25T08:50:08.612Z,69.81
2018-04-25T08:51:06.918Z,68.56
2018-04-25T08:52:06.924Z,67.50
2018-04-25T08:53:06.929Z,67.79
2018-04-25T08:54:06.937Z,67.79
2018-04-25T08:55:06.941Z,68.46
2018-04-25T08:56:08.499Z,67.60
2018-04-25T08:57:06.953Z,68.75
2018-04-25T08:58:06.958Z,65.97
2018-04-25T08:59:06.966Z,65.94
2018-04-25T09:00:06.969Z,66.61
2018-04-25T09:01:06.972Z,67.72
2018-04-25T09:02:06.975Z,68.01
2018-04-25T09:03:06.978Z,69.45
2018-04-25T09:04:06.983Z,68.07
2018-04-25T09:05:06.982Z,69.42
2018-04-25T09:06:06.982Z,70.34
2018-04-25T09:07:06.983Z,70.62
2018-04-25T09:08:08.534Z,71.39
2018-04-25T09:09:06.982Z,72.58
2018-04-25T09:10:06.983Z,72.00
2018-04-25T09:11:06.982Z,69.54
2018-04-25T09:12:06.982Z,68.33
2018-04-25T09:13:06.986Z,67.85
2018-04-25T09:14:06.985Z,66.35
2018-04-25T09:15:06.988Z,66.29
2018-04-25T09:16:06.991Z,64.66
2018-04-25T09:17:06.994Z,63.32
2018-04-25T09:18:06.999Z,65.01
2018-04-25T09:19:07.003Z,64.63
2018-04-25T09:20:07.007Z,65.88
2018-04-25T09:21:07.010Z,65.20
2018-04-25T09:22:07.014Z,64.72
2018-04-25T09:23:07.020Z,65.20
2018-04-25T09:24:07.032Z,64.34
2018-04-25T09:25:07.027Z,64.15
2018-04-25T09:26:07.132Z,63.79
2018-04-25T09:27:07.039Z,64.50
2018-04-25T09:28:07.043Z,63.03
2018-04-25T09:29:07.052Z,62.84
2018-04-25T09:30:07.054Z,65.91
2018-04-25T09:31:07.059Z,64.82
2018-04-25T09:32:07.064Z,65.11
2018-04-25T09:33:07.069Z,66.03
2018-04-25T09:34:07.074Z,65.55
2018-04-25T09:35:07.075Z,66.51
2018-04-25T09:36:07.077Z,64.43
2018-04-25T09:37:07.083Z,63.76
2018-04-25T09:38:07.084Z,63.60
2018-04-25T09:39:07.090Z,64.15
2018-04-25T09:40:07.096Z,63.73
2018-04-25T09:41:07.094Z,64.98
2018-04-25T09:42:07.098Z,67.38
2018-04-25T09:43:07.099Z,67.44
2018-04-25T09:44:07.852Z,68.30
2018-04-25T09:45:07.100Z,69.17
2018-04-25T09:46:07.101Z,70.18
2018-04-25T09:47:07.102Z,69.60
2018-04-25T09:48:07.101Z,70.34
2018-04-25T09:49:07.098Z,72.63
2018-04-25T09:50:08.653Z,72.63
2018-04-25T09:51:07.097Z,72.54
2018-04-25T09:52:07.095Z,73.17
2018-04-25T09:53:07.097Z,73.17
2018-04-25T09:54:07.091Z,73.99
2018-04-25T09:55:07.090Z,75.05
2018-04-25T09:56:07.086Z,75.81
2018-04-25T09:57:07.084Z,76.57
2018-04-25T09:58:07.162Z,76.39
2018-04-25T09:59:07.076Z,78.01
2018-04-25T10:00:07.072Z,77.44
2018-04-25T10:01:07.068Z,77.34
2018-04-25T10:02:07.917Z,77.06
2018-04-25T10:03:07.059Z,76.86
2018-04-25T10:04:07.100Z,76.29
2018-04-25T10:05:07.049Z,77.06
2018-04-25T10:06:07.045Z,76.96
2018-04-25T10:07:07.040Z,76.86
2018-04-25T10:08:07.035Z,76.71
2018-04-25T10:09:07.032Z,75.47
2018-04-25T10:10:07.028Z,74.65
2018-04-25T10:11:07.023Z,73.30
2018-04-25T10:12:07.021Z,72.67
2018-04-25T10:13:07.017Z,70.81
2018-04-25T10:14:07.017Z,71.20
2018-04-25T10:15:07.015Z,71.77
2018-04-25T10:16:07.010Z,71.68
2018-04-25T10:17:07.040Z,72.83
2018-04-25T10:18:07.004Z,72.34
2018-04-25T10:19:07.002Z,70.76
2018-04-25T10:20:09.452Z,68.87
2018-04-25T10:21:06.997Z,67.25
2018-04-25T10:22:06.996Z,66.58
2018-04-25T10:23:06.996Z,65.91
2018-04-25T10:24:06.996Z,66.00
2018-04-25T10:25:06.999Z,65.52
2018-04-25T10:26:06.996Z,66.09
2018-04-25T10:27:06.996Z,65.81
2018-04-25T10:28:06.997Z,66.54
2018-04-25T10:29:06.995Z,67.02
2018-04-25T10:30:06.994Z,66.54
2018-04-25T10:31:06.994Z,68.46
2018-04-25T10:32:07.101Z,66.19
2018-04-25T10:33:06.993Z,67.15
2018-04-25T10:34:06.992Z,66.67
2018-04-25T10:35:06.992Z,65.52
2018-04-25T10:36:06.991Z,65.14
2018-04-25T10:37:06.988Z,64.02
2018-04-25T10:38:06.989Z,62.77
2018-04-25T10:39:06.991Z,61.63
2018-04-25T10:40:06.991Z,62.39
2018-04-25T10:41:06.993Z,63.35
2018-04-25T10:42:06.994Z,63.03
2018-04-25T10:43:06.992Z,63.48
2018-04-25T10:44:08.622Z,63.67
2018-04-25T10:45:06.991Z,63.39
2018-04-25T10:46:06.990Z,62.81
2018-04-25T10:47:06.995Z,61.94
2018-04-25T10:48:06.989Z,60.03
2018-04-25T10:49:06.986Z,60.61
2018-04-25T10:50:08.537Z,60.51
2018-04-25T10:51:06.984Z,60.67
2018-04-25T10:52:06.988Z,61.63
2018-04-25T10:53:06.979Z,61.44
2018-04-25T10:54:06.977Z,61.25
2018-04-25T10:55:06.976Z,62.68
2018-04-25T10:56:06.973Z,62.52
2018-04-25T10:57:06.969Z,62.71
2018-04-25T10:58:06.967Z,62.49
2018-04-25T10:59:06.964Z,63.57
2018-04-25T11:00:06.963Z,62.55
2018-04-25T11:01:06.960Z,62.84
2018-04-25T11:02:06.959Z,62.01
2018-04-25T11:03:06.959Z,60.41
2018-04-25T11:04:06.959Z,60.25
2018-04-25T11:05:06.959Z,59.29
2018-04-25T11:06:06.959Z,59.09
2018-04-25T11:07:06.961Z,58.55
2018-04-25T11:08:06.964Z,57.62
2018-04-25T11:09:06.967Z,56.68
2018-04-25T11:10:06.974Z,55.60
2018-04-25T11:11:06.974Z,55.67
2018-04-25T11:12:06.979Z,57.08
2018-04-25T11:13:06.980Z,56.63
2018-04-25T11:14:07.734Z,57.01
2018-04-25T11:15:06.988Z,55.67
2018-04-25T11:16:06.993Z,55.86
2018-04-25T11:17:06.993Z,56.51
2018-04-25T11:18:06.997Z,56.60
2018-04-25T11:19:07.000Z,56.57
2018-04-25T11:20:07.002Z,58.37
2018-04-25T11:21:07.003Z,58.91
2018-04-25T11:22:07.004Z,59.87
2018-04-25T11:23:07.006Z,60.83
2018-04-25T11:24:07.005Z,60.54
2018-04-25T11:25:07.005Z,60.35
2018-04-25T11:26:07.005Z,60.16
2018-04-25T11:27:07.005Z,60.06
2018-04-25T11:28:07.005Z,59.11
2018-04-25T11:29:07.004Z,59.87
2018-04-25T11:30:07.006Z,60.25
2018-04-25T11:31:07.005Z,60.16
2018-04-25T11:32:07.757Z,58.65
2018-04-25T11:33:07.004Z,58.46
2018-04-25T11:34:07.004Z,56.48
2018-04-25T11:35:07.005Z,55.49
2018-04-25T11:36:07.005Z,57.21
2018-04-25T11:37:07.004Z,57.19
2018-04-25T11:38:07.010Z,59.39
2018-04-25T11:39:07.009Z,59.08
2018-04-25T11:40:07.005Z,59.94
2018-04-25T11:41:07.001Z,60.22
2018-04-25T11:42:07.000Z,60.25
2018-04-25T11:43:07.000Z,58.24
2018-04-25T11:44:07.798Z,58.59
2018-04-25T11:45:06.997Z,57.19
2018-04-25T11:46:06.993Z,57.83
2018-04-25T11:47:07.073Z,57.86
2018-04-25T11:48:06.989Z,56.99
2018-04-25T11:49:06.987Z,57.86
2018-04-25T11:50:06.985Z,57.09
2018-04-25T11:51:06.983Z,57.06
2018-04-25T11:52:06.983Z,56.97
2018-04-25T11:53:06.978Z,57.64
2018-04-25T11:54:06.976Z,57.67
2018-04-25T11:55:06.976Z,57.92
2018-04-25T11:56:06.973Z,57.09
2018-04-25T11:57:06.968Z,57.95
2018-04-25T11:58:06.978Z,57.73
2018-04-25T11:59:06.963Z,57.86
2018-04-25T12:00:06.966Z,58.15
2018-04-25T12:01:06.958Z,57.73
2018-04-25T12:02:06.956Z,58.50
2018-04-25T12:03:06.952Z,58.24
2018-04-25T12:04:06.949Z,58.05
2018-04-25T12:05:07.105Z,57.92
2018-04-25T12:06:06.943Z,59.08
2018-04-25T12:07:06.941Z,58.98
2018-04-25T12:08:07.037Z,59.17
2018-04-25T12:09:06.932Z,58.98
2018-04-25T12:10:06.929Z,59.84
2018-04-25T12:11:06.928Z,58.94
2018-04-25T12:12:06.924Z,57.82
2018-04-25T12:13:06.939Z,56.41
2018-04-25T12:14:07.670Z,56.79
2018-04-25T12:15:06.920Z,55.42
2018-04-25T12:16:06.919Z,56.64
2018-04-25T12:17:06.916Z,57.21
2018-04-25T12:18:06.916Z,57.89
2018-04-25T12:19:06.914Z,57.38
2018-04-25T12:20:06.909Z,58.05
2018-04-25T12:21:06.906Z,58.88
2018-04-25T12:22:06.904Z,58.79
2018-04-25T12:23:06.905Z,58.95
2018-04-25T12:24:06.898Z,59.14
2018-04-25T12:25:06.894Z,59.91
2018-04-25T12:26:07.697Z,59.91
2018-04-25T12:27:06.887Z,60.96
2018-04-25T12:28:06.884Z,60.29
2018-04-25T12:29:06.878Z,59.72
2018-04-25T12:30:06.877Z,59.72
2018-04-25T12:31:06.871Z,60.67
2018-04-25T12:32:07.618Z,59.14
2018-04-25T12:33:06.861Z,59.72
2018-04-25T12:34:06.858Z,58.76
2018-04-25T12:35:06.854Z,58.95
2018-04-25T12:36:06.849Z,58.66
2018-04-25T12:37:06.845Z,60.19
2018-04-25T12:38:07.590Z,59.72
2018-04-25T12:39:06.839Z,58.95
2018-04-25T12:40:06.868Z,58.09
2018-04-25T12:41:06.826Z,57.51
2018-04-25T12:42:06.822Z,58.66
2018-04-25T12:43:06.819Z,59.81
2018-04-25T12:44:06.813Z,57.99
2018-04-25T12:45:06.808Z,58.09
2018-04-25T12:46:06.804Z,59.14
2018-04-25T12:47:06.844Z,58.83
2018-04-25T12:48:06.795Z,59.78
2018-04-25T12:49:06.790Z,60.16
2018-04-25T12:50:06.786Z,61.22
2018-04-25T12:51:06.780Z,59.78
2018-04-25T12:52:06.776Z,59.78